Ridgeland, Mississippi
Current Conditions -  °F | °C
As of 6:53 AM on Wednesday 26 Nov 2014 (Local Time) from KHKS Reporting Station
Clear Clear  
Wind Chill: 29°   Ceiling: Unl
Heat Index: 29°   Visibility: 10mi
Dew Point: 27°   Wind: 3mph
Humidity: 92%   Direction: 150°SSE
Pressure: 30.2"   Gusts: NA
Location:  32.43°N, 90.14°W
Report Text: KHKS 261253Z AUTO 15003KT 10SM CLR M02/M03 A3020 RMK AO2 SLP224 T10171028
Loading
Personal Weather Stations






























Interactive Weather Map New forecast layout! Learn more

10-Day Weather Forecast

Advertisements
Track Severe Weather on mobile